createdAt,value
2023-02-11T00:01:21.664Z,22.70
2023-02-11T00:03:49.806Z,20.20
2023-02-11T00:06:17.783Z,20.20
2023-02-11T00:08:46.210Z,21.00
2023-02-11T00:11:17.367Z,21.40
2023-02-11T00:13:46.193Z,22.30
2023-02-11T00:16:17.574Z,23.80
2023-02-11T00:18:46.368Z,26.30
2023-02-11T00:21:18.045Z,25.90
2023-02-11T00:23:46.731Z,24.90
2023-02-11T00:26:21.373Z,24.50
2023-02-11T00:28:51.073Z,23.90
2023-02-11T00:31:20.983Z,22.90
2023-02-11T00:33:49.183Z,20.00
2023-02-11T00:36:21.178Z,15.60
2023-02-11T00:38:50.641Z,16.80
2023-02-11T00:41:19.100Z,17.00
2023-02-11T00:43:47.589Z,16.00
2023-02-11T00:46:16.185Z,15.70
2023-02-11T00:48:44.687Z,16.00
2023-02-11T00:51:13.815Z,13.10
2023-02-11T00:53:41.781Z,15.30
2023-02-11T00:56:09.892Z,16.50
2023-02-11T00:58:38.562Z,18.90
2023-02-11T01:01:06.670Z,19.30
2023-02-11T01:03:35.191Z,18.90
2023-02-11T01:06:03.309Z,17.60
2023-02-11T01:08:31.500Z,20.60
2023-02-11T01:11:03.485Z,20.70
2023-02-11T01:13:35.167Z,20.50
2023-02-11T01:16:07.432Z,20.20
2023-02-11T01:18:36.424Z,20.50
2023-02-11T01:21:04.803Z,21.10
2023-02-11T01:23:32.701Z,22.20
2023-02-11T01:26:00.712Z,21.60
2023-02-11T01:28:30.476Z,21.10
2023-02-11T01:31:00.116Z,21.50
2023-02-11T01:33:28.970Z,23.50
2023-02-11T01:36:01.982Z,23.70
2023-02-11T01:38:30.521Z,23.30
2023-02-11T01:41:04.793Z,23.40
2023-02-11T01:43:36.436Z,24.80
2023-02-11T01:46:07.132Z,24.40
2023-02-11T01:48:39.299Z,24.50
2023-02-11T01:51:13.730Z,24.90
2023-02-11T01:54:02.102Z,24.40
2023-02-11T01:56:50.176Z,24.10
2023-02-11T01:59:24.625Z,25.50
2023-02-11T02:01:58.957Z,24.40
2023-02-11T02:04:32.102Z,24.10
2023-02-11T02:07:08.891Z,24.70
2023-02-11T02:09:44.530Z,24.10
2023-02-11T02:12:12.483Z,22.40
2023-02-11T02:14:41.900Z,23.60
2023-02-11T02:17:38.201Z,23.90
2023-02-11T02:20:09.083Z,24.00
2023-02-11T02:23:06.151Z,24.40
2023-02-11T02:25:49.553Z,22.70
2023-02-11T02:29:09.462Z,23.90
2023-02-11T02:32:05.148Z,23.40
2023-02-11T02:34:58.644Z,22.10
2023-02-11T02:37:42.029Z,22.40
2023-02-11T02:40:17.100Z,21.70
2023-02-11T02:42:46.440Z,21.80
2023-02-11T02:45:14.969Z,22.10
2023-02-11T02:47:42.872Z,20.90
2023-02-11T02:50:15.012Z,21.70
2023-02-11T02:53:00.776Z,22.70
2023-02-11T02:56:03.433Z,22.20
2023-02-11T02:59:00.073Z,23.00
2023-02-11T03:01:47.320Z,21.90
2023-02-11T03:04:27.173Z,22.10
2023-02-11T03:07:03.233Z,21.10
2023-02-11T03:09:44.527Z,22.80
2023-02-11T03:12:14.736Z,21.10
2023-02-11T03:14:44.137Z,20.70
2023-02-11T03:17:15.069Z,20.70
2023-02-11T03:19:46.186Z,18.70
2023-02-11T03:22:27.249Z,19.60
2023-02-11T03:24:56.309Z,19.70
2023-02-11T03:27:36.861Z,20.10
2023-02-11T03:30:40.655Z,17.40
2023-02-11T03:33:24.365Z,18.40
2023-02-11T03:36:04.843Z,19.10
2023-02-11T03:38:37.647Z,19.70
2023-02-11T03:41:08.244Z,19.50
2023-02-11T03:43:42.722Z,18.80
2023-02-11T03:46:13.579Z,18.50
2023-02-11T03:48:47.446Z,19.10
2023-02-11T03:51:17.126Z,19.00
2023-02-11T03:53:47.201Z,19.10
2023-02-11T03:56:19.887Z,19.50
2023-02-11T03:58:49.073Z,17.80
2023-02-11T04:01:17.213Z,17.70
2023-02-11T04:03:45.145Z,19.10
2023-02-11T04:06:13.048Z,17.50
2023-02-11T04:08:40.929Z,18.30
2023-02-11T04:11:08.976Z,17.60
2023-02-11T04:13:36.898Z,18.40
2023-02-11T04:16:05.024Z,17.80
2023-02-11T04:18:33.025Z,18.10
2023-02-11T04:21:01.036Z,18.40
2023-02-11T04:23:29.309Z,18.90
2023-02-11T04:25:57.408Z,18.80
2023-02-11T04:28:26.957Z,18.60
2023-02-11T04:30:55.898Z,17.70
2023-02-11T04:33:24.510Z,17.80
2023-02-11T04:35:52.700Z,18.80
2023-02-11T04:38:24.127Z,18.10
2023-02-11T04:40:52.084Z,16.90
2023-02-11T04:43:20.040Z,17.50
2023-02-11T04:45:48.441Z,17.80
2023-02-11T04:48:16.771Z,17.80
2023-02-11T04:50:44.693Z,17.50
2023-02-11T04:53:12.606Z,18.20
2023-02-11T04:55:40.600Z,18.10
2023-02-11T04:58:08.551Z,17.70
2023-02-11T05:00:36.500Z,19.40
2023-02-11T05:03:04.386Z,18.10
2023-02-11T05:05:32.379Z,19.00
2023-02-11T05:08:00.420Z,18.40
2023-02-11T05:10:28.710Z,18.90
2023-02-11T05:12:56.580Z,18.90
2023-02-11T05:15:24.638Z,18.10
2023-02-11T05:17:52.777Z,18.70
2023-02-11T05:20:21.349Z,19.00
2023-02-11T05:22:49.432Z,17.80
2023-02-11T05:25:17.553Z,19.80
2023-02-11T05:27:45.512Z,19.30
2023-02-11T05:30:14.737Z,18.90
2023-02-11T05:32:42.785Z,18.00
2023-02-11T05:35:10.646Z,18.60
2023-02-11T05:37:38.697Z,19.70
2023-02-11T05:40:06.848Z,18.30
2023-02-11T05:42:35.303Z,18.10
2023-02-11T05:45:04.289Z,18.90
2023-02-11T05:47:32.261Z,18.00
2023-02-11T05:50:00.352Z,17.50
2023-02-11T05:52:28.401Z,17.40
2023-02-11T05:54:56.293Z,18.20
2023-02-11T05:57:24.224Z,17.90
2023-02-11T05:59:52.194Z,18.50
2023-02-11T06:02:20.161Z,18.30
2023-02-11T06:04:48.336Z,18.80
2023-02-11T06:07:20.508Z,18.80
2023-02-11T06:09:57.628Z,19.20
2023-02-11T06:12:26.865Z,20.20
2023-02-11T06:14:54.765Z,19.70
2023-02-11T06:17:23.449Z,19.50
2023-02-11T06:19:51.506Z,18.70
2023-02-11T06:22:19.568Z,19.70
2023-02-11T06:25:01.433Z,20.60
2023-02-11T06:27:30.640Z,21.00
2023-02-11T06:30:03.104Z,20.70
2023-02-11T06:32:45.146Z,22.00
2023-02-11T06:35:14.936Z,24.10
2023-02-11T06:37:43.109Z,24.00
2023-02-11T06:40:12.779Z,23.40
2023-02-11T06:42:40.868Z,24.00
2023-02-11T06:45:11.035Z,27.60
2023-02-11T06:47:42.229Z,29.80
2023-02-11T06:50:14.185Z,30.90
2023-02-11T06:52:43.151Z,33.30
2023-02-11T06:55:11.149Z,32.70
2023-02-11T06:57:39.312Z,35.50
2023-02-11T07:00:08.994Z,32.80
2023-02-11T07:02:37.257Z,32.50
2023-02-11T07:05:07.443Z,32.70
2023-02-11T07:07:35.737Z,30.20
2023-02-11T07:10:04.614Z,30.00
2023-02-11T07:12:32.771Z,28.80
2023-02-11T07:15:00.777Z,29.00
2023-02-11T07:17:28.849Z,29.90
2023-02-11T07:19:56.894Z,30.00
2023-02-11T07:22:24.987Z,28.30
2023-02-11T07:24:52.968Z,28.70
2023-02-11T07:27:20.828Z,29.40
2023-02-11T07:29:48.831Z,27.80
2023-02-11T07:32:17.355Z,29.20
2023-02-11T07:34:45.610Z,29.00
2023-02-11T07:37:13.791Z,27.50
2023-02-11T07:39:41.846Z,26.00
2023-02-11T07:42:09.890Z,26.30
2023-02-11T07:44:38.018Z,28.90
2023-02-11T07:47:09.008Z,28.20
2023-02-11T07:49:37.065Z,27.60
2023-02-11T07:52:05.210Z,25.70
2023-02-11T07:54:33.252Z,28.00
2023-02-11T07:57:03.789Z,27.10
2023-02-11T07:59:40.314Z,28.80
2023-02-11T08:02:09.728Z,26.70
2023-02-11T08:04:37.759Z,28.20
2023-02-11T08:07:06.910Z,27.30
2023-02-11T08:09:34.850Z,27.90
2023-02-11T08:12:03.017Z,29.40
2023-02-11T08:14:33.481Z,29.60
2023-02-11T08:17:02.165Z,27.00
2023-02-11T08:19:30.341Z,28.00
2023-02-11T08:21:59.785Z,28.40
2023-02-11T08:24:27.983Z,30.10
2023-02-11T08:26:56.494Z,31.80
2023-02-11T08:29:26.297Z,34.20
2023-02-11T08:31:54.624Z,35.30
2023-02-11T08:34:22.823Z,35.00
2023-02-11T08:36:50.898Z,35.90
2023-02-11T08:39:21.576Z,35.30
2023-02-11T08:41:52.897Z,36.90
2023-02-11T08:44:21.861Z,33.60
2023-02-11T08:46:51.814Z,33.50
2023-02-11T08:49:21.323Z,29.70
2023-02-11T08:51:50.752Z,29.00
2023-02-11T08:54:19.106Z,31.10
2023-02-11T08:56:52.315Z,25.50
2023-02-11T08:59:20.775Z,23.10
2023-02-11T09:01:50.959Z,26.50
2023-02-11T09:04:22.306Z,24.30
2023-02-11T09:06:50.489Z,25.10
2023-02-11T09:09:19.659Z,21.40
2023-02-11T09:11:48.297Z,25.50
2023-02-11T09:14:22.402Z,27.40
2023-02-11T09:17:10.386Z,29.20
2023-02-11T09:19:40.440Z,26.10
2023-02-11T09:22:09.236Z,31.90
2023-02-11T09:24:37.695Z,30.30
2023-02-11T09:27:16.673Z,31.50
2023-02-11T09:29:52.095Z,30.90
2023-02-11T09:32:40.055Z,32.00
2023-02-11T09:35:08.600Z,30.40
2023-02-11T09:37:37.493Z,31.90
2023-02-11T09:40:06.811Z,33.50
2023-02-11T09:43:21.296Z,27.70
2023-02-11T09:46:05.117Z,29.10
2023-02-11T09:48:42.043Z,24.50
2023-02-11T09:51:44.547Z,24.60
2023-02-11T09:54:23.685Z,26.00
2023-02-11T09:56:55.389Z,27.00
2023-02-11T09:59:23.634Z,28.20
2023-02-11T10:01:59.363Z,27.70
2023-02-11T10:04:41.214Z,29.20
2023-02-11T10:07:37.557Z,29.70
2023-02-11T10:10:36.192Z,30.00
2023-02-11T10:13:26.353Z,28.90
2023-02-11T10:16:14.096Z,28.90
2023-02-11T10:19:00.435Z,28.30
2023-02-11T10:21:43.810Z,31.10
2023-02-11T10:24:17.075Z,28.50
2023-02-11T10:26:46.054Z,32.80
2023-02-11T10:29:26.276Z,30.90
2023-02-11T10:31:56.576Z,31.40
2023-02-11T10:34:26.097Z,34.70
2023-02-11T10:36:54.100Z,34.80
2023-02-11T10:39:26.208Z,33.40
2023-02-11T10:42:00.431Z,32.10
2023-02-11T10:44:34.982Z,34.50
2023-02-11T10:47:24.002Z,33.50
2023-02-11T10:49:52.188Z,31.20
2023-02-11T10:52:22.084Z,34.00
2023-02-11T10:54:58.491Z,35.20
2023-02-11T10:57:31.740Z,33.80
2023-02-11T11:00:06.615Z,31.80
2023-02-11T11:02:38.897Z,31.10
2023-02-11T11:05:17.282Z,30.80
2023-02-11T11:08:13.748Z,28.30
2023-02-11T11:10:44.912Z,27.30
2023-02-11T11:13:28.135Z,28.90
2023-02-11T11:16:25.403Z,28.70
2023-02-11T11:19:08.413Z,28.40
2023-02-11T11:21:44.446Z,26.20
2023-02-11T11:24:22.597Z,28.20
2023-02-11T11:26:54.307Z,26.60
2023-02-11T11:29:37.048Z,26.70
2023-02-11T11:32:20.523Z,26.20
2023-02-11T11:34:54.166Z,25.90
2023-02-11T11:37:33.061Z,24.80
2023-02-11T11:40:26.830Z,26.20
2023-02-11T11:43:13.184Z,27.80
2023-02-11T11:46:01.173Z,25.70
2023-02-11T11:48:40.200Z,25.30
2023-02-11T11:51:13.399Z,24.70
2023-02-11T11:53:41.263Z,25.60
2023-02-11T11:56:18.313Z,27.60
2023-02-11T11:58:46.311Z,26.30
2023-02-11T12:01:39.343Z,26.60
2023-02-11T12:04:25.514Z,27.70
2023-02-11T12:06:59.334Z,26.60
2023-02-11T12:12:26.837Z,26.40
2023-02-11T12:15:19.851Z,26.60
2023-02-11T12:18:10.657Z,26.40
2023-02-11T12:21:03.627Z,27.30
2023-02-11T12:23:55.443Z,25.60
2023-02-11T12:26:31.534Z,28.50
2023-02-11T12:29:33.544Z,29.80
2023-02-11T12:32:04.455Z,28.00
2023-02-11T12:34:43.165Z,28.00
2023-02-11T12:37:48.702Z,28.50
2023-02-11T12:40:43.732Z,26.70
2023-02-11T12:43:26.992Z,24.70
2023-02-11T12:46:25.957Z,23.20
2023-02-11T12:49:15.376Z,25.70
2023-02-11T12:51:58.307Z,25.60
2023-02-11T12:54:35.683Z,26.50
2023-02-11T12:57:06.264Z,28.30
2023-02-11T13:00:19.780Z,26.80
2023-02-11T13:03:05.545Z,23.90
2023-02-11T13:05:40.830Z,27.00
2023-02-11T13:08:15.959Z,25.80
2023-02-11T13:10:49.860Z,24.60
2023-02-11T13:13:34.983Z,26.70
2023-02-11T13:16:39.804Z,27.00
2023-02-11T13:19:13.558Z,27.90
2023-02-11T13:22:06.090Z,27.10
2023-02-11T13:24:58.343Z,28.90
2023-02-11T13:27:44.217Z,26.40
2023-02-11T13:30:31.546Z,27.20
2023-02-11T13:33:02.333Z,26.90
2023-02-11T13:35:31.899Z,27.30
2023-02-11T13:38:03.477Z,28.50
2023-02-11T13:40:39.858Z,29.30
2023-02-11T13:43:21.829Z,27.90
2023-02-11T13:45:52.418Z,28.40
2023-02-11T13:48:32.038Z,29.80
2023-02-11T13:51:10.919Z,26.50
2023-02-11T13:53:49.306Z,29.30
2023-02-11T13:56:41.082Z,29.10
2023-02-11T13:59:27.671Z,26.80
2023-02-11T14:02:35.411Z,27.40
2023-02-11T14:05:24.860Z,27.80
2023-02-11T14:08:29.986Z,27.20
2023-02-11T14:10:58.956Z,26.00
2023-02-11T14:13:31.283Z,27.30
2023-02-11T14:16:07.218Z,26.80
2023-02-11T14:18:45.302Z,26.30
2023-02-11T14:21:23.935Z,26.00
2023-02-11T14:23:56.111Z,25.80
2023-02-11T14:26:42.555Z,25.60
2023-02-11T14:29:22.916Z,24.10
2023-02-11T14:31:53.823Z,24.40
2023-02-11T14:34:30.949Z,24.50
2023-02-11T14:37:33.954Z,22.00
2023-02-11T14:40:22.807Z,24.20
2023-02-11T14:42:53.986Z,26.90
2023-02-11T14:45:27.394Z,24.20
2023-02-11T14:48:16.333Z,25.40
2023-02-11T14:50:54.348Z,25.00
2023-02-11T14:53:25.516Z,25.40
2023-02-11T14:55:55.666Z,26.40
2023-02-11T14:58:32.224Z,26.50
2023-02-11T15:01:25.862Z,25.20
2023-02-11T15:03:56.841Z,25.00
2023-02-11T15:06:38.293Z,25.20
2023-02-11T15:09:29.434Z,26.20
2023-02-11T15:11:57.799Z,25.90
2023-02-11T15:14:33.104Z,26.40
2023-02-11T15:17:08.211Z,25.70
2023-02-11T15:19:41.285Z,26.70
2023-02-11T15:22:33.010Z,25.60
2023-02-11T15:25:07.489Z,25.20
2023-02-11T15:27:40.230Z,25.80
2023-02-11T15:30:31.030Z,26.50
2023-02-11T15:33:03.045Z,25.80
2023-02-11T15:35:40.934Z,26.00
2023-02-11T15:38:12.897Z,27.40
2023-02-11T15:40:40.931Z,27.20
2023-02-11T15:43:10.714Z,26.00
2023-02-11T15:46:01.408Z,27.10
2023-02-11T15:48:42.393Z,25.80
2023-02-11T15:51:38.769Z,27.50
2023-02-11T15:54:18.562Z,28.00
2023-02-11T15:56:50.844Z,26.90
2023-02-11T15:59:39.327Z,26.90
2023-02-11T16:02:16.167Z,27.50
2023-02-11T16:05:17.311Z,28.10
2023-02-11T16:07:50.704Z,28.40
2023-02-11T16:10:20.798Z,29.10
2023-02-11T16:13:12.059Z,30.40
2023-02-11T16:15:46.943Z,29.60
2023-02-11T16:18:38.254Z,28.10
2023-02-11T16:21:16.070Z,29.00
2023-02-11T16:23:51.644Z,31.00
2023-02-11T16:26:52.975Z,29.80
2023-02-11T16:29:26.342Z,29.60
2023-02-11T16:32:07.181Z,31.60
2023-02-11T16:34:35.465Z,30.30
2023-02-11T16:37:08.110Z,30.40
2023-02-11T16:39:38.904Z,33.40
2023-02-11T16:42:08.304Z,35.20
2023-02-11T16:44:36.398Z,35.00
2023-02-11T16:47:08.092Z,33.30
2023-02-11T16:49:40.683Z,36.10
2023-02-11T16:52:13.818Z,35.60
2023-02-11T16:54:41.985Z,36.10
2023-02-11T16:57:21.934Z,36.50
2023-02-11T16:59:50.424Z,36.00
2023-02-11T17:02:18.324Z,36.70
2023-02-11T17:04:47.048Z,38.80
2023-02-11T17:07:15.158Z,42.10
2023-02-11T17:09:43.115Z,41.50
2023-02-11T17:12:11.031Z,43.10
2023-02-11T17:14:39.045Z,44.10
2023-02-11T17:17:08.072Z,42.30
2023-02-11T17:19:36.871Z,41.80
2023-02-11T17:22:05.547Z,45.00
2023-02-11T17:24:33.558Z,47.70
2023-02-11T17:27:01.528Z,45.90
2023-02-11T17:29:29.661Z,48.30
2023-02-11T17:32:02.837Z,49.00
2023-02-11T17:34:32.447Z,41.70
2023-02-11T17:37:01.520Z,42.70
2023-02-11T17:39:29.482Z,43.50
2023-02-11T17:41:57.491Z,44.80
2023-02-11T17:44:25.566Z,46.30
2023-02-11T17:46:56.256Z,44.50
2023-02-11T17:49:24.435Z,45.00
2023-02-11T17:51:52.409Z,43.40
2023-02-11T17:54:20.784Z,44.70
2023-02-11T17:56:50.856Z,44.60
2023-02-11T17:59:19.818Z,43.20
2023-02-11T18:01:48.512Z,42.60
2023-02-11T18:04:19.320Z,42.20
2023-02-11T18:09:40.640Z,59.60
2023-02-11T18:12:09.588Z,58.40
2023-02-11T18:14:41.683Z,61.50
2023-02-11T18:17:10.010Z,57.40
2023-02-11T18:19:38.268Z,55.80
2023-02-11T18:22:06.722Z,55.00
2023-02-11T18:24:35.031Z,52.40
2023-02-11T18:27:03.337Z,44.10
2023-02-11T18:29:31.608Z,47.60
2023-02-11T18:31:59.775Z,50.20
2023-02-11T18:34:31.731Z,48.00
2023-02-11T18:37:04.149Z,48.00
2023-02-11T18:39:42.906Z,46.10
2023-02-11T18:42:11.149Z,48.30
2023-02-11T18:44:39.640Z,47.90
2023-02-11T18:47:07.773Z,48.90
2023-02-11T18:49:36.392Z,46.80
2023-02-11T18:52:05.899Z,46.20
2023-02-11T18:54:36.060Z,48.80
2023-02-11T18:57:04.310Z,44.80
2023-02-11T18:59:32.455Z,45.20
2023-02-11T19:02:00.796Z,41.70
2023-02-11T19:04:29.249Z,41.30
2023-02-11T19:06:57.354Z,39.70
2023-02-11T19:09:25.466Z,39.60
2023-02-11T19:11:54.587Z,36.70
2023-02-11T19:14:26.260Z,39.90
2023-02-11T19:16:57.368Z,40.30
2023-02-11T19:19:28.812Z,38.90
2023-02-11T19:21:58.304Z,42.60
2023-02-11T19:24:29.596Z,41.60
2023-02-11T19:27:01.172Z,39.50
2023-02-11T19:29:32.532Z,36.10
2023-02-11T19:32:01.537Z,39.30
2023-02-11T19:34:29.732Z,39.50
2023-02-11T19:37:00.929Z,39.10
2023-02-11T19:39:35.451Z,40.50
2023-02-11T19:42:06.588Z,39.50
2023-02-11T19:44:34.723Z,39.80
2023-02-11T19:47:03.334Z,38.20
2023-02-11T19:49:34.273Z,38.10
2023-02-11T19:52:02.611Z,40.00
2023-02-11T19:54:44.672Z,38.40
2023-02-11T19:57:23.746Z,36.10
2023-02-11T19:59:55.088Z,38.10
2023-02-11T20:02:31.978Z,35.40
2023-02-11T20:05:00.435Z,35.80
2023-02-11T20:07:31.536Z,40.30
2023-02-11T20:10:00.187Z,41.40
2023-02-11T20:12:29.304Z,43.10
2023-02-11T20:14:57.897Z,41.80
2023-02-11T20:17:26.235Z,43.40
2023-02-11T20:19:54.243Z,42.20
2023-02-11T20:22:22.230Z,41.00
2023-02-11T20:24:50.264Z,39.70
2023-02-11T20:27:20.067Z,38.60
2023-02-11T20:29:48.280Z,42.10
2023-02-11T20:32:16.302Z,37.00
2023-02-11T20:34:44.588Z,40.10
2023-02-11T20:37:12.776Z,39.20
2023-02-11T20:39:44.817Z,38.70
2023-02-11T20:42:15.170Z,40.30
2023-02-11T20:44:43.313Z,42.50
2023-02-11T20:47:12.341Z,43.50
2023-02-11T20:49:40.405Z,44.00
2023-02-11T20:52:08.700Z,44.60
2023-02-11T20:54:39.127Z,43.40
2023-02-11T20:57:17.740Z,45.30
2023-02-11T20:59:49.170Z,44.20
2023-02-11T21:02:21.871Z,48.00
2023-02-11T21:04:51.663Z,46.20
2023-02-11T21:07:20.087Z,48.50
2023-02-11T21:10:02.361Z,45.40
2023-02-11T21:12:30.728Z,47.90
2023-02-11T21:14:59.260Z,46.70
2023-02-11T21:17:27.627Z,48.20
2023-02-11T21:19:55.675Z,46.90
2023-02-11T21:22:24.248Z,47.40
2023-02-11T21:24:52.675Z,47.10
2023-02-11T21:27:21.429Z,49.10
2023-02-11T21:29:54.422Z,49.40
2023-02-11T21:32:22.997Z,50.50
2023-02-11T21:34:54.324Z,49.20
2023-02-11T21:37:23.597Z,48.00
2023-02-11T21:39:51.516Z,47.30
2023-02-11T21:42:19.467Z,48.90
2023-02-11T21:44:47.524Z,47.40
2023-02-11T21:47:15.865Z,46.90
2023-02-11T21:49:44.135Z,44.70
2023-02-11T21:52:12.062Z,41.10
2023-02-11T21:54:39.993Z,41.00
2023-02-11T21:57:08.000Z,40.80
2023-02-11T21:59:36.410Z,38.20
2023-02-11T22:02:04.520Z,39.90
2023-02-11T22:04:33.587Z,40.70
2023-02-11T22:07:03.087Z,45.00
2023-02-11T22:09:31.035Z,47.30
2023-02-11T22:12:01.923Z,46.00
2023-02-11T22:14:32.422Z,44.30
2023-02-11T22:17:00.492Z,45.70
2023-02-11T22:19:28.545Z,46.70
2023-02-11T22:21:56.509Z,45.00
2023-02-11T22:24:26.622Z,45.00
2023-02-11T22:26:54.624Z,45.60
2023-02-11T22:29:22.975Z,42.40
2023-02-11T22:31:51.016Z,42.90
2023-02-11T22:34:18.999Z,43.30
2023-02-11T22:36:47.083Z,41.10
2023-02-11T22:39:17.652Z,43.50
2023-02-11T22:41:47.363Z,43.60
2023-02-11T22:44:17.268Z,42.20
2023-02-11T22:46:54.122Z,43.50
2023-02-11T22:49:22.206Z,44.00
2023-02-11T22:52:03.163Z,45.30
2023-02-11T22:54:31.757Z,42.40
2023-02-11T22:57:00.264Z,43.60
2023-02-11T22:59:28.369Z,43.30
2023-02-11T23:01:56.433Z,46.30
2023-02-11T23:04:24.541Z,48.90
2023-02-11T23:06:52.670Z,50.70
2023-02-11T23:09:20.594Z,48.80
2023-02-11T23:11:49.487Z,47.60
2023-02-11T23:14:17.398Z,48.10
2023-02-11T23:16:45.456Z,47.00
2023-02-11T23:19:13.581Z,48.20
2023-02-11T23:21:41.689Z,48.20
2023-02-11T23:24:15.619Z,48.90
2023-02-11T23:29:12.516Z,50.80
2023-02-11T23:31:44.220Z,50.20
2023-02-11T23:34:17.139Z,51.50
2023-02-11T23:36:45.199Z,50.50
2023-02-11T23:39:15.988Z,50.10
2023-02-11T23:41:45.418Z,49.80
2023-02-11T23:44:13.455Z,51.40
2023-02-11T23:46:41.630Z,51.70
2023-02-11T23:49:09.997Z,48.70
2023-02-11T23:51:37.905Z,46.30
2023-02-11T23:54:05.840Z,46.20
2023-02-11T23:56:33.836Z,47.80
2023-02-11T23:59:01.679Z,48.40
